Time;durP1;ratioP1;P1;durP2;ratioP2;P2;SDS_P1;SDS_P2;PMS_P1;PMS_P2;Temp;Humidity;BMP_temperature;BMP_pressure;BME280_temperature;BME280_humidity;BME280_pressure;Samples;Min_cycle;Max_cycle;Signal;HPM_P1;HPM_P2
2021/12/09 00:01:03;;;;;;;11.02;8.07;;;9.10;88.80;;;;;;5051624;28;20028;-75
2021/12/09 00:03:32;;;;;;;10.52;7.63;;;9.10;88.20;;;;;;5051563;28;20017;-74
2021/12/09 00:05:59;;;;;;;12.40;8.05;;;9.10;88.30;;;;;;5050495;28;20112;-75
2021/12/09 00:08:28;;;;;;;11.50;7.97;;;9.10;88.30;;;;;;5051556;28;20033;-75
2021/12/09 00:10:55;;;;;;;11.13;7.70;;;9.10;88.30;;;;;;5050194;28;20021;-75
2021/12/09 00:13:22;;;;;;;11.82;7.85;;;9.10;88.30;;;;;;5051431;28;20021;-76
2021/12/09 00:15:48;;;;;;;12.18;8.10;;;9.10;88.40;;;;;;5050250;28;20115;-75
2021/12/09 00:18:13;;;;;;;11.13;7.43;;;9.10;88.40;;;;;;5053131;28;20025;-75
2021/12/09 00:20:39;;;;;;;10.75;7.63;;;9.10;88.40;;;;;;5055189;28;20025;-76
2021/12/09 00:23:05;;;;;;;10.90;7.50;;;9.10;88.40;;;;;;5053972;28;20021;-76
2021/12/09 00:25:30;;;;;;;11.80;7.47;;;9.10;88.40;;;;;;5054177;28;20087;-75
2021/12/09 00:27:56;;;;;;;10.65;7.75;;;9.10;88.40;;;;;;5055264;28;20029;-75
2021/12/09 00:30:22;;;;;;;11.80;7.55;;;9.10;88.40;;;;;;5053756;28;20033;-75
2021/12/09 00:32:48;;;;;;;10.77;7.90;;;9.10;88.50;;;;;;5055167;28;20029;-75
2021/12/09 00:35:16;;;;;;;12.73;7.82;;;9.10;88.40;;;;;;5055110;28;20021;-75
2021/12/09 00:37:53;;;;;;;11.48;7.72;;;9.10;88.50;;;;;;5053269;28;20112;-75
2021/12/09 00:40:19;;;;;;;10.32;7.18;;;9.10;88.40;;;;;;5053737;28;20483;-74
2021/12/09 00:42:45;;;;;;;13.98;7.82;;;9.10;88.50;;;;;;5054962;28;20384;-75
2021/12/09 00:45:10;;;;;;;11.25;7.72;;;9.10;88.50;;;;;;5054929;28;20032;-75
2021/12/09 00:47:36;;;;;;;11.57;7.15;;;9.10;89.00;;;;;;5053548;28;20398;-74
2021/12/09 00:50:02;;;;;;;10.63;7.63;;;9.10;88.50;;;;;;5053245;28;20017;-75
2021/12/09 00:52:28;;;;;;;11.05;8.23;;;9.10;88.50;;;;;;5053568;28;20116;-75
2021/12/09 00:54:57;;;;;;;12.07;8.10;;;9.10;88.50;;;;;;5053405;28;20056;-75
2021/12/09 00:57:24;;;;;;;13.75;8.30;;;9.10;88.50;;;;;;5053410;28;20047;-75
2021/12/09 00:59:50;;;;;;;19.77;8.32;;;9.10;88.50;;;;;;5053135;28;20025;-74
2021/12/09 01:02:15;;;;;;;15.93;7.60;;;9.10;88.50;;;;;;5054482;28;20087;-74
2021/12/09 01:04:43;;;;;;;14.75;7.68;;;9.10;88.60;;;;;;5053688;28;20063;-75
2021/12/09 01:07:09;;;;;;;11.98;7.80;;;9.10;88.50;;;;;;5053383;28;20582;-76
2021/12/09 01:09:35;;;;;;;13.02;7.60;;;9.10;88.50;;;;;;5054195;28;20029;-75
2021/12/09 01:12:02;;;;;;;13.68;8.45;;;9.10;88.50;;;;;;5053165;28;20479;-74
2021/12/09 01:14:28;;;;;;;13.20;8.27;;;9.10;88.50;;;;;;5054308;28;20025;-76
2021/12/09 01:16:53;;;;;;;12.77;7.70;;;9.10;88.50;;;;;;5054232;28;20025;-75
2021/12/09 01:19:19;;;;;;;14.90;7.68;;;9.10;88.50;;;;;;5052959;28;20025;-75
2021/12/09 01:21:45;;;;;;;12.50;8.13;;;9.10;88.50;;;;;;5053136;28;20494;-75
2021/12/09 01:24:10;;;;;;;15.32;7.95;;;9.10;88.50;;;;;;5054128;28;20029;-75
2021/12/09 01:26:36;;;;;;;13.20;7.82;;;9.10;88.50;;;;;;5054317;28;20025;-75
2021/12/09 01:29:10;;;;;;;12.50;7.63;;;9.10;88.50;;;;;;5053491;28;20028;-73
2021/12/09 01:31:38;;;;;;;13.52;7.68;;;9.10;88.60;;;;;;5052685;28;20025;-75
2021/12/09 01:34:05;;;;;;;12.32;7.80;;;9.10;88.60;;;;;;5052860;28;20028;-75
2021/12/09 01:36:34;;;;;;;12.48;8.05;;;9.10;88.50;;;;;;5052778;28;20473;-74
2021/12/09 01:39:02;;;;;;;13.30;7.85;;;9.10;88.50;;;;;;5051937;28;20075;-75
2021/12/09 01:41:28;;;;;;;12.57;8.43;;;9.20;88.60;;;;;;5052571;28;20021;-75
2021/12/09 01:43:54;;;;;;;13.05;8.07;;;9.10;88.50;;;;;;5054013;28;20036;-75
2021/12/09 01:46:20;;;;;;;12.40;8.25;;;9.10;88.50;;;;;;5052839;28;20090;-74
2021/12/09 01:48:47;;;;;;;12.05;7.65;;;9.10;88.50;;;;;;5052605;28;20480;-74
2021/12/09 01:51:14;;;;;;;12.35;7.97;;;9.10;88.50;;;;;;5053476;28;20435;-76
2021/12/09 01:53:40;;;;;;;13.68;7.88;;;9.10;88.50;;;;;;5053544;28;20032;-76
2021/12/09 01:56:12;;;;;;;16.58;8.48;;;9.10;88.50;;;;;;5052347;28;20025;-77
2021/12/09 01:58:38;;;;;;;11.40;8.07;;;9.10;88.50;;;;;;5052385;28;20128;-75
2021/12/09 02:01:05;;;;;;;12.20;7.93;;;9.10;88.50;;;;;;5053238;28;20494;-77
2021/12/09 02:03:32;;;;;;;11.77;7.97;;;9.10;88.50;;;;;;5052408;28;20392;-75
2021/12/09 02:05:58;;;;;;;11.38;7.82;;;9.10;88.60;;;;;;5053541;28;20025;-75
2021/12/09 02:08:24;;;;;;;12.25;7.93;;;9.10;88.50;;;;;;5053443;28;20083;-75
2021/12/09 02:10:52;;;;;;;10.07;7.75;;;9.10;88.50;;;;;;5053104;28;20106;-75
2021/12/09 02:13:19;;;;;;;12.95;8.43;;;9.10;88.60;;;;;;5051844;28;20029;-75
2021/12/09 02:15:46;;;;;;;13.25;8.20;;;9.10;88.60;;;;;;5051914;28;20407;-74
2021/12/09 02:18:13;;;;;;;10.23;7.40;;;9.10;88.60;;;;;;5053397;28;20024;-75
2021/12/09 02:20:40;;;;;;;11.38;8.00;;;9.10;88.60;;;;;;5053014;28;20051;-74
2021/12/09 02:23:10;;;;;;;12.23;7.75;;;9.10;88.60;;;;;;5052834;28;20115;-75
2021/12/09 05:22:06;;;;;;;8.98;4.90;;;9.20;87.70;;;;;;4867030;29;20024;-81
2021/12/09 06:08:32;;;;;;;8.95;5.22;;;9.30;87.40;;;;;;4956168;28;20028;-82
2021/12/09 06:17:30;;;;;;;8.68;5.10;;;9.30;87.80;;;;;;4996254;23;20063;-80
2021/12/09 06:26:24;;;;;;;12.02;6.50;;;9.10;88.40;;;;;;4956668;28;20063;-80
2021/12/09 06:28:50;;;;;;;10.98;6.07;;;9.10;88.50;;;;;;4958240;28;20019;-80
2021/12/09 06:37:25;;;;;;;13.27;8.68;;;9.00;86.30;;;;;;4989975;23;20055;-80
2021/12/09 06:39:50;;;;;;;13.95;8.75;;;9.00;87.20;;;;;;4977915;28;20050;-80
2021/12/09 08:26:21;;;;;;;10.85;7.35;;;9.10;87.80;;;;;;2079293;23;20304;-76
2021/12/09 08:28:47;;;;;;;11.30;7.38;;;9.20;87.70;;;;;;4931162;29;20047;-75
2021/12/09 08:31:13;;;;;;;10.68;7.30;;;9.20;87.60;;;;;;4932864;29;20079;-76
2021/12/09 08:33:39;;;;;;;12.32;7.20;;;9.20;87.30;;;;;;4934578;29;20034;-76
2021/12/09 08:36:04;;;;;;;12.15;7.18;;;9.30;87.30;;;;;;4932849;29;20508;-75
2021/12/09 08:38:30;;;;;;;10.55;7.10;;;9.30;87.20;;;;;;4932973;29;20024;-76
2021/12/09 08:40:56;;;;;;;12.18;7.47;;;9.30;87.20;;;;;;4936463;29;20024;-78
2021/12/09 08:43:23;;;;;;;13.40;7.45;;;9.30;87.10;;;;;;4936548;29;20392;-78
2021/12/09 08:45:50;;;;;;;11.98;7.60;;;9.30;86.90;;;;;;4936387;29;20043;-76
2021/12/09 08:48:17;;;;;;;9.88;6.72;;;9.40;86.70;;;;;;4936467;29;20391;-76
2021/12/09 08:50:44;;;;;;;11.38;6.60;;;9.40;86.40;;;;;;4936046;29;20032;-76
2021/12/09 08:53:13;;;;;;;11.02;6.63;;;9.50;86.40;;;;;;4936275;29;20034;-76
2021/12/09 08:55:40;;;;;;;10.98;6.53;;;9.50;86.20;;;;;;4937437;29;20035;-77
2021/12/09 08:58:07;;;;;;;10.98;6.22;;;9.50;86.60;;;;;;4937361;29;20391;-77
2021/12/09 09:00:33;;;;;;;12.18;6.97;;;9.60;85.90;;;;;;4936042;29;20034;-77
2021/12/09 09:03:00;;;;;;;11.10;6.28;;;9.60;85.90;;;;;;4937457;29;20016;-76
2021/12/09 09:05:27;;;;;;;11.43;6.68;;;9.60;85.80;;;;;;4935841;29;20030;-77
2021/12/09 09:07:53;;;;;;;12.65;6.63;;;9.60;85.70;;;;;;4936095;29;20044;-76
2021/12/09 09:10:21;;;;;;;11.55;6.35;;;9.60;86.00;;;;;;4937003;29;20593;-77
2021/12/09 09:12:48;;;;;;;12.45;6.53;;;9.60;85.70;;;;;;4937119;29;20051;-76
2021/12/09 09:15:16;;;;;;;11.10;5.93;;;9.60;85.90;;;;;;4937024;29;20028;-76
2021/12/09 09:17:42;;;;;;;12.65;6.10;;;9.50;85.90;;;;;;4936994;29;20492;-76
2021/12/09 09:20:11;;;;;;;11.45;6.00;;;9.50;85.80;;;;;;4935648;29;20311;-76
2021/12/09 09:22:39;;;;;;;12.27;5.90;;;9.50;85.90;;;;;;4937102;29;20027;-76
2021/12/09 09:25:07;;;;;;;9.73;5.93;;;9.50;86.00;;;;;;4935422;29;20558;-76
2021/12/09 09:27:32;;;;;;;10.93;5.57;;;9.50;86.10;;;;;;4935609;29;20287;-76
2021/12/09 09:29:58;;;;;;;11.32;5.90;;;9.50;86.00;;;;;;4935284;29;20380;-76
2021/12/09 09:32:23;;;;;;;10.77;5.57;;;9.50;86.00;;;;;;4935680;29;20050;-77
2021/12/09 09:34:49;;;;;;;11.38;5.88;;;9.50;86.00;;;;;;4936630;29;20028;-77
2021/12/09 09:37:16;;;;;;;10.30;5.20;;;9.50;85.90;;;;;;4934862;29;20079;-77
2021/12/09 09:39:44;;;;;;;9.20;5.38;;;9.60;85.70;;;;;;4936419;29;20032;-76
2021/12/09 09:44:54;;;;;;;10.63;5.53;;;9.60;85.40;;;;;;4936661;29;20102;-76
2021/12/09 09:47:21;;;;;;;10.35;5.65;;;9.70;85.70;;;;;;4936560;29;20047;-78
2021/12/09 09:49:47;;;;;;;10.75;5.15;;;9.70;85.00;;;;;;4935931;29;20028;-76
2021/12/09 09:52:12;;;;;;;9.45;5.40;;;9.80;84.80;;;;;;4935218;29;20122;-77
2021/12/09 09:54:40;;;;;;;9.85;5.53;;;9.80;84.60;;;;;;4935084;29;20032;-76
2021/12/09 09:57:07;;;;;;;11.20;5.65;;;9.90;84.40;;;;;;4936336;29;20019;-76
2021/12/09 09:59:32;;;;;;;11.60;4.88;;;9.90;84.10;;;;;;4934859;29;20119;-76
2021/12/09 10:01:58;;;;;;;9.20;4.97;;;9.90;84.00;;;;;;4935029;29;20118;-76
2021/12/09 10:04:37;;;;;;;9.32;4.72;;;9.90;83.80;;;;;;4936045;29;20028;-76
2021/12/09 10:07:05;;;;;;;9.23;5.10;;;9.90;83.70;;;;;;4936247;29;20097;-77
2021/12/09 10:09:31;;;;;;;10.13;4.85;;;10.00;83.70;;;;;;4934713;29;20027;-76
2021/12/09 10:11:59;;;;;;;9.00;4.55;;;10.00;83.50;;;;;;4936019;29;20039;-76
2021/12/09 10:14:29;;;;;;;9.80;4.63;;;10.00;83.40;;;;;;4934859;29;20083;-77
2021/12/09 10:17:11;;;;;;;9.90;5.00;;;10.00;83.40;;;;;;4935862;29;20031;-77
2021/12/09 10:19:46;;;;;;;8.75;4.47;;;10.00;83.00;;;;;;4935651;29;20024;-77
2021/12/09 10:22:18;;;;;;;10.52;4.85;;;10.10;83.10;;;;;;4934665;29;20023;-78
2021/12/09 10:24:45;;;;;;;8.98;4.53;;;10.10;83.10;;;;;;4935921;29;20028;-76
2021/12/09 10:27:30;;;;;;;9.25;5.00;;;10.10;83.00;;;;;;4934274;29;20471;-77
2021/12/09 10:30:02;;;;;;;11.40;4.90;;;10.10;82.80;;;;;;4935508;29;20028;-76
2021/12/09 10:32:32;;;;;;;10.07;4.78;;;10.10;82.70;;;;;;4935668;29;20063;-77
2021/12/09 10:35:10;;;;;;;9.35;4.63;;;10.10;82.60;;;;;;4935769;29;20074;-77
2021/12/09 10:37:38;;;;;;;10.63;5.05;;;10.10;82.70;;;;;;4933840;29;20086;-76
2021/12/09 10:40:13;;;;;;;10.93;4.90;;;10.10;82.70;;;;;;4934065;29;20028;-76
2021/12/09 10:42:48;;;;;;;9.23;5.03;;;10.10;82.70;;;;;;4934464;29;20458;-77
2021/12/09 10:45:15;;;;;;;8.40;4.57;;;10.10;82.80;;;;;;4935528;29;20027;-76
2021/12/09 10:50:35;;;;;;;9.25;4.80;;;10.20;82.60;;;;;;4935348;29;20039;-76
2021/12/09 10:53:29;;;;;;;9.55;4.20;;;10.20;82.60;;;;;;4935342;29;20030;-77
2021/12/09 10:55:57;;;;;;;9.83;4.50;;;10.20;82.30;;;;;;4935134;29;20574;-76
2021/12/09 10:58:25;;;;;;;11.23;4.55;;;10.30;82.20;;;;;;4934002;29;20067;-76
2021/12/09 11:01:21;;;;;;;11.00;5.25;;;10.30;82.10;;;;;;4933594;29;20030;-77
2021/12/09 11:03:57;;;;;;;9.27;4.10;;;10.30;82.10;;;;;;4935225;29;20046;-76
2021/12/09 11:06:31;;;;;;;9.40;4.20;;;10.30;82.00;;;;;;4933726;29;20038;-76
2021/12/09 11:08:59;;;;;;;7.60;4.15;;;10.30;82.00;;;;;;4933506;29;20484;-74
2021/12/09 11:11:28;;;;;;;8.10;4.43;;;10.30;82.00;;;;;;4933834;29;20027;-76
2021/12/09 11:13:57;;;;;;;8.20;4.00;;;10.30;82.00;;;;;;4935106;29;20055;-77
2021/12/09 11:16:32;;;;;;;9.18;4.20;;;10.30;82.00;;;;;;4933553;29;20499;-75
2021/12/09 11:19:38;;;;;;;9.90;3.70;;;10.30;82.10;;;;;;4934500;29;20034;-75
2021/12/09 11:22:06;;;;;;;11.63;4.40;;;10.20;82.10;;;;;;4928285;29;20090;-76
2021/12/09 11:24:38;;;;;;;7.88;4.03;;;10.20;82.40;;;;;;4933661;29;20403;-76
2021/12/09 11:27:09;;;;;;;9.90;3.90;;;10.10;82.70;;;;;;4934847;29;20027;-76
2021/12/09 11:29:42;;;;;;;9.25;4.30;;;10.00;83.00;;;;;;4933348;29;20031;-76
2021/12/09 11:32:15;;;;;;;9.35;4.15;;;10.00;83.30;;;;;;4933543;29;20429;-76
2021/12/09 11:34:47;;;;;;;9.07;3.95;;;9.90;83.50;;;;;;4934807;29;20533;-76
2021/12/09 11:37:37;;;;;;;8.15;3.95;;;9.90;83.70;;;;;;4932961;29;20134;-74
2021/12/09 11:40:12;;;;;;;10.38;4.32;;;9.90;84.00;;;;;;4934633;29;20052;-76
2021/12/09 11:42:49;;;;;;;9.48;4.43;;;9.90;84.10;;;;;;4933646;29;20035;-75
2021/12/09 11:45:18;;;;;;;8.20;4.07;;;9.80;84.20;;;;;;4933432;29;20019;-76
2021/12/09 11:47:46;;;;;;;7.75;3.58;;;9.80;84.30;;;;;;4934474;29;20107;-76
2021/12/09 11:50:17;;;;;;;9.93;4.07;;;9.80;84.50;;;;;;4934335;29;20024;-74
2021/12/09 11:52:45;;;;;;;8.18;3.92;;;9.70;84.60;;;;;;4933460;29;20028;-75
2021/12/09 11:55:18;;;;;;;9.15;4.07;;;9.70;84.70;;;;;;4933289;29;20083;-76
2021/12/09 11:57:51;;;;;;;8.57;4.15;;;9.70;84.80;;;;;;4934657;29;20032;-75
2021/12/09 12:11:58;;;;;;;8.65;3.75;;;9.60;85.30;;;;;;4934664;29;20075;-75
2021/12/09 12:14:41;;;;;;;8.63;3.83;;;9.60;85.40;;;;;;4936674;29;20040;-77
2021/12/09 12:17:22;;;;;;;8.55;3.90;;;9.60;85.40;;;;;;4936896;29;20368;-75
2021/12/09 12:23:00;;;;;;;11.75;4.70;;;9.60;85.60;;;;;;4938345;29;20031;-76
2021/12/09 12:25:56;;;;;;;9.00;3.90;;;9.60;85.50;;;;;;4936759;29;20035;-76
2021/12/09 12:28:34;;;;;;;10.27;4.43;;;9.60;85.50;;;;;;4937991;29;20035;-77
2021/12/09 12:34:22;;;;;;;8.60;4.32;;;9.50;85.40;;;;;;4938126;29;20062;-77
2021/12/09 12:37:13;;;;;;;8.05;4.50;;;9.60;85.50;;;;;;4937910;29;20027;-77
2021/12/09 12:42:17;;;;;;;9.40;4.32;;;9.60;85.50;;;;;;4938039;29;20114;-78
2021/12/09 12:45:15;;;;;;;9.63;4.28;;;9.60;85.50;;;;;;4936517;29;20024;-76
2021/12/09 12:47:49;;;;;;;10.50;5.13;;;9.50;85.50;;;;;;4937525;29;20027;-77
2021/12/09 12:50:17;;;;;;;9.68;4.75;;;9.50;85.50;;;;;;4937368;29;20024;-76
2021/12/09 12:52:44;;;;;;;8.32;5.10;;;9.50;85.50;;;;;;4937699;29;20558;-77
2021/12/09 12:55:14;;;;;;;10.60;4.80;;;9.50;85.60;;;;;;4936282;29;20515;-76
2021/12/09 12:57:44;;;;;;;8.20;4.68;;;9.50;85.70;;;;;;4936173;29;20031;-75
2021/12/09 13:00:15;;;;;;;10.82;5.15;;;9.50;85.60;;;;;;4936991;29;20020;-78
2021/12/09 13:03:13;;;;;;;10.23;4.97;;;9.50;85.30;;;;;;4937502;29;20020;-76
2021/12/09 13:06:12;;;;;;;8.88;5.20;;;9.50;85.20;;;;;;4937271;29;20479;-77
2021/12/09 13:09:14;;;;;;;9.77;5.38;;;9.60;85.10;;;;;;4936099;29;20451;-76
2021/12/09 13:11:41;;;;;;;8.68;5.13;;;9.60;85.00;;;;;;4937341;29;20107;-76
2021/12/09 13:14:16;;;;;;;11.68;6.18;;;9.60;84.90;;;;;;4935769;29;20050;-77
2021/12/09 13:17:03;;;;;;;10.38;5.82;;;9.60;84.80;;;;;;4935786;29;20031;-75
2021/12/09 13:19:38;;;;;;;10.15;5.93;;;9.60;84.80;;;;;;4935765;29;20024;-75
2021/12/09 13:22:18;;;;;;;11.30;6.55;;;9.60;84.70;;;;;;4935820;29;20023;-76
2021/12/09 13:24:57;;;;;;;10.85;6.32;;;9.50;84.60;;;;;;4935257;29;20075;-77
2021/12/09 13:27:38;;;;;;;10.18;6.38;;;9.60;84.60;;;;;;4935526;29;20140;-76
2021/12/09 13:33:18;;;;;;;15.43;8.75;;;9.60;84.50;;;;;;4937065;29;20039;-75
2021/12/09 13:46:56;;;;;;;17.08;8.02;;;9.50;84.20;;;;;;4936617;29;20399;-77
2021/12/09 13:49:49;;;;;;;30.15;8.82;;;9.50;83.90;;;;;;4935151;29;20032;-77
2021/12/09 13:55:17;;;;;;;23.67;8.63;;;9.50;84.10;;;;;;4936435;29;20098;-77
2021/12/09 13:57:50;;;;;;;22.58;9.05;;;9.50;83.90;;;;;;4935066;29;20071;-77
2021/12/09 14:00:38;;;;;;;17.52;9.35;;;9.50;83.90;;;;;;4934857;29;20031;-76
2021/12/09 14:03:11;;;;;;;13.63;8.05;;;9.50;83.90;;;;;;4936228;29;20454;-77
2021/12/09 14:05:49;;;;;;;16.15;7.82;;;9.40;83.90;;;;;;4936282;29;20151;-76
2021/12/09 14:08:25;;;;;;;11.27;7.32;;;9.40;83.90;;;;;;4935067;29;20114;-76
2021/12/09 14:10:53;;;;;;;11.77;6.72;;;9.40;83.70;;;;;;4936044;29;20026;-77
2021/12/09 14:13:22;;;;;;;11.63;7.32;;;9.40;83.80;;;;;;4936056;29;20020;-76
2021/12/09 14:16:07;;;;;;;11.52;6.72;;;9.40;84.00;;;;;;4935895;29;20516;-77
2021/12/09 14:21:26;;;;;;;10.18;6.88;;;9.30;84.40;;;;;;4908648;29;20112;-77
2021/12/09 14:24:08;;;;;;;8.25;6.13;;;9.30;84.50;;;;;;4934638;29;20026;-77
2021/12/09 14:26:34;;;;;;;9.45;6.20;;;9.20;84.50;;;;;;4980430;23;20063;-75
2021/12/09 14:29:03;;;;;;;10.02;7.00;;;9.20;84.70;;;;;;4958625;28;20026;-76
2021/12/09 14:31:30;;;;;;;8.73;6.22;;;9.30;84.80;;;;;;4958553;29;20410;-76
2021/12/09 14:34:01;;;;;;;8.90;6.07;;;9.20;84.80;;;;;;4959285;29;20110;-76
2021/12/09 14:36:27;;;;;;;11.05;6.40;;;9.20;85.00;;;;;;4955026;28;20102;-75
2021/12/09 14:38:52;;;;;;;10.32;6.25;;;9.20;85.10;;;;;;4955263;29;20038;-76
2021/12/09 14:41:27;;;;;;;8.63;5.60;;;9.20;85.20;;;;;;4955596;29;20020;-77
2021/12/09 14:43:53;;;;;;;7.90;5.85;;;9.20;85.20;;;;;;4955642;29;20305;-76
2021/12/09 14:46:24;;;;;;;9.48;5.75;;;9.20;85.90;;;;;;4956201;29;20031;-76
2021/12/09 14:48:51;;;;;;;18.33;6.57;;;9.20;85.40;;;;;;4956599;29;20027;-76
2021/12/09 14:51:24;;;;;;;36.47;7.22;;;9.20;85.10;;;;;;4955331;29;20059;-76
2021/12/09 14:54:02;;;;;;;17.38;5.10;;;9.20;81.20;;;;;;4958719;28;20058;-78
2021/12/09 14:56:29;;;;;;;18.73;5.60;;;9.10;80.20;;;;;;4955358;29;20028;-77
2021/12/09 14:59:14;;;;;;;12.18;5.47;;;9.10;81.00;;;;;;4956497;28;20503;-77
2021/12/09 15:01:41;;;;;;;13.07;5.28;;;9.10;81.90;;;;;;4955625;29;20033;-75
2021/12/09 15:04:15;;;;;;;14.30;5.22;;;9.10;82.50;;;;;;4957040;28;20062;-76
2021/12/09 15:06:44;;;;;;;12.50;5.32;;;9.20;83.20;;;;;;4954929;29;20511;-76
2021/12/09 15:09:16;;;;;;;12.48;5.20;;;9.20;83.80;;;;;;4954911;29;20491;-76
2021/12/09 15:11:52;;;;;;;;;;;9.20;84.00;;;;;;4956497;28;20023;-77
2021/12/09 15:14:19;;;;;;;14.95;5.53;;;9.20;84.10;;;;;;4954033;29;19907;-77
2021/12/09 15:16:45;;;;;;;12.43;4.90;;;9.20;84.30;;;;;;4955141;28;20159;-77
2021/12/09 15:19:19;;;;;;;10.27;4.97;;;9.20;84.50;;;;;;4955185;28;20025;-76
2021/12/09 15:22:02;;;;;;;11.80;5.05;;;9.20;84.00;;;;;;4954573;29;20038;-77
2021/12/09 15:24:28;;;;;;;30.48;6.78;;;9.30;84.30;;;;;;4954801;29;20553;-77
2021/12/09 15:26:53;;;;;;;22.88;5.68;;;9.20;84.10;;;;;;4954233;29;20042;-76
2021/12/09 15:29:22;;;;;;;13.02;4.60;;;9.20;83.70;;;;;;4955989;29;20023;-76
2021/12/09 15:31:59;;;;;;;844.30;72.05;;;9.20;83.70;;;;;;4956125;28;20035;-76
2021/12/09 15:34:26;;;;;;;615.13;52.17;;;9.20;84.00;;;;;;4954690;29;20105;-76
2021/12/09 15:37:02;;;;;;;554.53;46.25;;;9.30;83.80;;;;;;4954149;29;20038;-75
2021/12/09 15:39:30;;;;;;;336.33;25.42;;;9.30;83.50;;;;;;4954881;28;20023;-76
2021/12/09 15:42:01;;;;;;;204.90;15.75;;;9.20;83.60;;;;;;4953875;29;20113;-76
2021/12/09 15:44:27;;;;;;;211.57;16.98;;;9.20;83.70;;;;;;4954464;29;20034;-76
2021/12/09 15:47:01;;;;;;;112.28;12.73;;;9.20;83.80;;;;;;4955642;29;20043;-75
2021/12/09 15:49:29;;;;;;;122.85;12.18;;;9.30;83.90;;;;;;4955082;28;20027;-75
2021/12/09 15:52:02;;;;;;;74.25;10.50;;;9.20;83.90;;;;;;4955545;28;20058;-78
2021/12/09 15:54:34;;;;;;;75.22;8.75;;;9.20;84.00;;;;;;4954342;29;20038;-76
2021/12/09 15:57:21;;;;;;;61.38;7.90;;;9.20;84.20;;;;;;4954357;29;20038;-76
2021/12/09 15:59:48;;;;;;;49.05;7.43;;;9.20;84.20;;;;;;4953975;29;20089;-75
2021/12/09 16:02:17;;;;;;;44.63;7.60;;;9.30;84.40;;;;;;4955369;28;20035;-77
2021/12/09 16:04:45;;;;;;;34.53;6.50;;;9.20;84.30;;;;;;4955168;28;20027;-76
2021/12/09 16:07:11;;;;;;;29.67;5.82;;;9.20;84.30;;;;;;4956107;28;20586;-77
2021/12/09 16:09:37;;;;;;;35.60;6.47;;;9.20;84.10;;;;;;4954217;28;20062;-76
2021/12/09 16:12:03;;;;;;;48.75;6.47;;;9.20;84.20;;;;;;4954456;29;20486;-76
2021/12/09 16:14:36;;;;;;;31.80;5.97;;;9.20;83.80;;;;;;4955895;28;20034;-75
2021/12/09 16:17:05;;;;;;;23.13;5.90;;;9.20;84.10;;;;;;4955518;28;20024;-76
2021/12/09 16:19:38;;;;;;;22.25;5.80;;;9.20;84.10;;;;;;4956162;28;20020;-76
2021/12/09 16:24:49;;;;;;;25.75;5.88;;;9.20;84.20;;;;;;4958315;28;20024;-76
2021/12/09 16:27:14;;;;;;;23.90;5.10;;;9.20;84.10;;;;;;4955928;29;20031;-77
2021/12/09 16:29:44;;;;;;;20.38;5.90;;;9.20;84.20;;;;;;4956409;29;20094;-76
2021/12/09 16:32:10;;;;;;;15.63;4.78;;;9.20;84.30;;;;;;4955558;29;20058;-76
2021/12/09 16:34:37;;;;;;;20.58;4.80;;;9.20;84.30;;;;;;4955248;28;20031;-77
2021/12/09 16:37:03;;;;;;;17.85;4.90;;;9.20;84.30;;;;;;4954702;29;20032;-75
2021/12/09 16:39:29;;;;;;;21.25;4.70;;;9.20;84.30;;;;;;4953821;28;20387;-78
2021/12/09 16:41:55;;;;;;;14.45;4.53;;;9.20;84.30;;;;;;4953402;29;20020;-77
2021/12/09 16:44:21;;;;;;;19.48;4.78;;;9.20;84.40;;;;;;4954514;29;20031;-77
2021/12/09 16:46:47;;;;;;;13.63;4.50;;;9.20;84.50;;;;;;4954186;29;20028;-77
2021/12/09 16:49:15;;;;;;;11.48;4.65;;;9.20;84.50;;;;;;4953109;29;20042;-78
2021/12/09 16:51:41;;;;;;;9.25;4.38;;;9.20;84.50;;;;;;4954241;28;20031;-77
2021/12/09 16:54:10;;;;;;;13.55;4.30;;;9.20;84.50;;;;;;4957676;28;20078;-78
2021/12/09 16:56:41;;;;;;;11.57;4.60;;;9.20;84.50;;;;;;4956131;28;20023;-78
2021/12/09 16:59:24;;;;;;;15.00;4.83;;;9.20;84.50;;;;;;4953259;28;20070;-82
2021/12/09 17:02:04;;;;;;;14.85;4.28;;;9.20;84.50;;;;;;4956157;29;20273;-79
2021/12/09 17:04:30;;;;;;;13.25;4.75;;;9.20;84.60;;;;;;4955931;29;20029;-79
2021/12/09 17:06:57;;;;;;;18.77;5.60;;;9.20;84.50;;;;;;4957328;28;20031;-79
2021/12/09 17:09:24;;;;;;;10.77;4.10;;;9.10;84.50;;;;;;4955691;29;20031;-78
2021/12/09 17:11:51;;;;;;;11.50;4.75;;;9.20;84.60;;;;;;4956037;29;20023;-79
2021/12/09 17:14:18;;;;;;;11.23;4.53;;;9.10;84.50;;;;;;4956289;29;20566;-80
2021/12/09 17:16:45;;;;;;;8.48;4.53;;;9.20;84.70;;;;;;4955739;29;20031;-79
2021/12/09 17:19:12;;;;;;;8.68;4.22;;;9.10;84.60;;;;;;4955623;29;20031;-79
2021/12/09 17:21:39;;;;;;;10.38;4.70;;;9.20;84.70;;;;;;4955967;29;20026;-79
2021/12/09 17:24:08;;;;;;;7.90;4.45;;;9.20;84.80;;;;;;4955961;29;20027;-79
2021/12/09 17:26:40;;;;;;;11.85;4.57;;;9.10;84.80;;;;;;4955269;29;20067;-79
2021/12/09 17:29:08;;;;;;;9.85;4.50;;;9.10;84.80;;;;;;4955462;28;20114;-78
2021/12/09 17:31:42;;;;;;;25.58;5.55;;;9.10;84.90;;;;;;4955398;29;20027;-78
2021/12/09 17:34:09;;;;;;;14.05;4.32;;;9.20;84.90;;;;;;4955562;29;20023;-79
2021/12/09 17:36:37;;;;;;;12.82;4.10;;;9.20;84.80;;;;;;4955614;29;20027;-79
2021/12/09 17:39:05;;;;;;;12.35;4.93;;;9.20;84.90;;;;;;4954782;29;20066;-79
2021/12/09 17:41:33;;;;;;;13.32;5.00;;;9.20;84.90;;;;;;4955152;29;20027;-77
2021/12/09 17:43:59;;;;;;;14.18;4.00;;;9.20;85.00;;;;;;4956376;28;20023;-79
2021/12/09 17:46:25;;;;;;;11.15;4.55;;;9.10;85.00;;;;;;4955233;29;20055;-78
2021/12/09 17:48:50;;;;;;;12.60;4.22;;;9.20;85.20;;;;;;4954976;29;20062;-78
2021/12/09 17:51:18;;;;;;;10.68;4.35;;;9.20;85.20;;;;;;4954924;29;20077;-77
2021/12/09 17:53:44;;;;;;;11.65;4.63;;;9.10;85.10;;;;;;4955363;29;20066;-78
2021/12/09 17:56:13;;;;;;;10.35;4.25;;;9.10;85.20;;;;;;4955381;29;20027;-78
2021/12/09 17:58:42;;;;;;;11.50;4.05;;;9.10;85.30;;;;;;4954947;28;20019;-77
2021/12/09 18:01:08;;;;;;;11.07;4.40;;;9.10;85.30;;;;;;4956256;28;20024;-78
2021/12/09 18:03:34;;;;;;;9.02;4.30;;;9.20;85.40;;;;;;4956157;28;20023;-77
2021/12/09 18:06:01;;;;;;;9.60;4.70;;;9.10;85.80;;;;;;4954853;29;20034;-78
2021/12/09 18:08:27;;;;;;;8.90;4.28;;;9.10;85.40;;;;;;4954916;29;20035;-78
2021/12/09 18:10:52;;;;;;;11.82;4.10;;;9.10;85.40;;;;;;4955864;28;20031;-77
2021/12/09 18:13:21;;;;;;;11.48;4.60;;;9.10;85.30;;;;;;4954906;29;20035;-77
2021/12/09 18:15:50;;;;;;;8.10;4.28;;;9.10;85.30;;;;;;4954496;29;20118;-78
2021/12/09 18:18:18;;;;;;;9.73;4.43;;;9.10;85.30;;;;;;4954609;29;20027;-78
2021/12/09 18:20:43;;;;;;;8.15;3.97;;;9.10;85.30;;;;;;4954460;29;20023;-80
2021/12/09 18:23:09;;;;;;;8.23;4.00;;;9.10;85.30;;;;;;4955515;29;20030;-77
2021/12/09 18:25:35;;;;;;;9.35;4.30;;;9.10;85.40;;;;;;4955264;29;20103;-79
2021/12/09 18:28:02;;;;;;;7.50;3.80;;;9.10;85.40;;;;;;4954307;29;20031;-80
2021/12/09 18:30:31;;;;;;;9.15;4.40;;;9.10;85.50;;;;;;4954273;29;20517;-79
2021/12/09 18:32:57;;;;;;;9.40;4.40;;;9.10;85.50;;;;;;4954180;29;20081;-78
2021/12/09 18:35:26;;;;;;;8.25;4.35;;;9.10;85.50;;;;;;4955264;28;20065;-78
2021/12/09 18:37:55;;;;;;;10.38;4.72;;;9.10;85.50;;;;;;4953775;28;20118;-78
2021/12/09 18:40:25;;;;;;;8.50;4.53;;;9.10;85.50;;;;;;4953978;29;20110;-78
2021/12/09 18:42:51;;;;;;;8.18;4.65;;;9.10;85.60;;;;;;4954219;29;20031;-78
2021/12/09 18:45:20;;;;;;;9.60;5.45;;;9.10;85.60;;;;;;4953924;29;20027;-78
2021/12/09 18:47:47;;;;;;;9.05;4.78;;;9.10;85.60;;;;;;4954913;28;20102;-79
2021/12/09 18:50:15;;;;;;;9.30;4.97;;;9.10;85.70;;;;;;4954012;29;20031;-78
2021/12/09 18:52:41;;;;;;;10.55;5.20;;;9.10;85.70;;;;;;4953699;29;20550;-78
2021/12/09 18:55:08;;;;;;;8.88;5.10;;;9.10;85.60;;;;;;4953711;29;20118;-79
2021/12/09 18:57:34;;;;;;;10.80;5.35;;;9.10;85.60;;;;;;4953746;29;20039;-79
2021/12/09 19:00:00;;;;;;;9.48;4.97;;;9.10;85.60;;;;;;4953334;29;20032;-79
2021/12/09 19:02:26;;;;;;;10.10;5.68;;;9.10;85.70;;;;;;4953541;29;20047;-79
2021/12/09 19:04:52;;;;;;;10.35;5.82;;;9.10;85.70;;;;;;4953248;28;20032;-79
2021/12/09 19:07:20;;;;;;;10.25;5.68;;;9.10;85.70;;;;;;4953848;29;20039;-79
2021/12/09 19:09:45;;;;;;;9.30;5.40;;;9.10;85.60;;;;;;4953350;29;20032;-79
2021/12/09 19:12:11;;;;;;;10.27;5.15;;;9.10;85.60;;;;;;4953668;29;20397;-79
2021/12/09 19:14:37;;;;;;;9.23;5.22;;;9.10;85.60;;;;;;4953608;29;20031;-79
2021/12/09 19:17:05;;;;;;;9.48;5.45;;;9.10;85.60;;;;;;4953365;29;20119;-79
2021/12/09 19:19:31;;;;;;;9.77;5.13;;;9.10;85.60;;;;;;4953984;29;20115;-80
2021/12/09 19:21:57;;;;;;;8.07;4.88;;;9.10;85.70;;;;;;4953411;28;20117;-78
2021/12/09 19:24:24;;;;;;;9.20;5.10;;;9.10;85.70;;;;;;4953796;29;20421;-78
2021/12/09 19:26:54;;;;;;;10.32;5.28;;;9.10;85.70;;;;;;4954803;28;20098;-78
2021/12/09 19:29:21;;;;;;;7.35;4.60;;;9.10;85.80;;;;;;4954074;29;20027;-78
2021/12/09 19:31:47;;;;;;;10.00;5.60;;;9.10;85.80;;;;;;4953595;29;20033;-78
2021/12/09 19:34:13;;;;;;;8.43;4.63;;;9.10;85.70;;;;;;4953842;29;20032;-77